Hendrum, Minnesota
Current Conditions -  °F | °C
As of 1:53 PM on Thursday 18 Dec 2014 (Local Time) from KFAR Reporting Station
Overcast Overcast  
Wind Chill:   Ceiling: 6000
Heat Index: 19°   Visibility: 10mi
Dew Point: 13°   Wind: 12mph
Humidity: 77%   Direction: 150°SSE
Pressure: 30.2"   Gusts: NA
Location:  47.26°N, 96.81°W
Report Text: KFAR 181953Z 15010KT 10SM OVC060 M07/M11 A3020 RMK AO2 SLP246 T10721106
Loading
Personal Weather Stations






























Interactive Weather Map New forecast layout! Learn more

10-Day Weather Forecast

Advertisements
Track Severe Weather on mobile